createdAt,value
2022-08-31T00:02:03.983Z,101017.09
2022-08-31T00:07:06.852Z,101014.41
2022-08-31T00:12:09.800Z,101013.13
2022-08-31T00:17:14.705Z,101015.00
2022-08-31T00:22:17.465Z,101010.19
2022-08-31T00:27:21.882Z,101017.03
2022-08-31T00:32:28.823Z,101025.31
2022-08-31T00:37:31.821Z,101011.22
2022-08-31T00:42:34.921Z,101020.78
2022-08-31T00:47:39.252Z,101014.78
2022-08-31T00:52:45.672Z,101016.66
2022-08-31T00:57:52.479Z,101006.53
2022-08-31T01:02:58.324Z,101008.66
2022-08-31T01:08:02.362Z,101015.38
2022-08-31T01:13:05.845Z,101018.09
2022-08-31T01:18:10.734Z,101015.91
2022-08-31T01:23:21.501Z,101013.38
2022-08-31T01:28:24.727Z,101010.78
2022-08-31T01:33:27.749Z,101011.50
2022-08-31T01:38:32.865Z,101013.06
2022-08-31T01:43:36.234Z,101010.34
2022-08-31T01:48:41.786Z,101013.34
2022-08-31T01:53:48.897Z,101021.72
2022-08-31T01:58:51.813Z,101023.84
2022-08-31T02:04:15.379Z,101018.72
2022-08-31T02:09:20.671Z,101021.13
2022-08-31T02:14:24.142Z,101025.25
2022-08-31T02:19:27.008Z,101021.09
2022-08-31T02:24:33.486Z,101025.09
2022-08-31T02:29:36.402Z,101012.53
2022-08-31T02:34:40.961Z,101013.50
2022-08-31T02:39:46.182Z,101028.16
2022-08-31T02:44:51.985Z,101015.63
2022-08-31T02:49:54.829Z,101021.31
2022-08-31T02:54:59.047Z,101026.56
2022-08-31T03:00:01.936Z,101020.88
2022-08-31T03:05:08.048Z,101019.00
2022-08-31T03:10:14.965Z,101015.44
2022-08-31T03:15:21.481Z,101013.13
2022-08-31T03:20:26.540Z,101020.34
2022-08-31T03:25:30.929Z,101007.66
2022-08-31T03:30:34.380Z,101010.47
2022-08-31T03:35:44.747Z,101006.22
2022-08-31T03:40:50.902Z,101011.00
2022-08-31T03:45:55.462Z,101007.03
2022-08-31T03:50:58.593Z,101018.25
2022-08-31T03:56:09.262Z,101017.88
2022-08-31T04:01:17.303Z,101027.09
2022-08-31T04:06:40.835Z,101027.22
2022-08-31T04:12:03.885Z,101034.06
2022-08-31T04:17:24.809Z,101032.34
2022-08-31T04:22:35.253Z,101041.25
2022-08-31T04:27:58.457Z,101039.66
2022-08-31T04:33:02.669Z,101032.09
2022-08-31T04:38:05.480Z,101038.63
2022-08-31T04:43:10.321Z,101041.13
2022-08-31T04:48:13.252Z,101056.44
2022-08-31T04:53:17.639Z,101051.19
2022-08-31T04:58:23.704Z,101047.09
2022-08-31T05:03:27.848Z,101054.41
2022-08-31T05:08:31.696Z,101059.69
2022-08-31T05:13:37.749Z,101062.13
2022-08-31T05:18:41.933Z,101070.50
2022-08-31T05:23:47.601Z,101072.06
2022-08-31T05:28:51.921Z,101076.25
2022-08-31T05:33:54.761Z,101072.06
2022-08-31T05:39:11.852Z,101064.78
2022-08-31T05:44:16.967Z,101076.84
2022-08-31T05:49:20.422Z,101081.63
2022-08-31T05:54:23.220Z,101078.50
2022-08-31T05:59:27.580Z,101092.09
2022-08-31T06:04:30.480Z,101078.50
2022-08-31T06:09:33.886Z,101097.78
2022-08-31T06:14:44.788Z,101099.19
2022-08-31T06:19:50.079Z,101099.84
2022-08-31T06:24:53.162Z,101108.72
2022-08-31T06:29:58.699Z,101099.91
2022-08-31T06:35:01.959Z,101101.59
2022-08-31T06:40:31.049Z,101101.06
2022-08-31T06:45:58.129Z,101102.28
2022-08-31T06:51:14.375Z,101105.25
2022-08-31T06:56:20.985Z,101111.44
2022-08-31T07:01:43.953Z,101114.44
2022-08-31T07:06:53.813Z,101113.63
2022-08-31T07:11:56.881Z,101112.94
2022-08-31T07:17:02.981Z,101109.16
2022-08-31T07:22:09.216Z,101117.34
2022-08-31T07:27:18.191Z,101109.88
2022-08-31T07:32:30.365Z,101116.59
2022-08-31T07:37:51.430Z,101118.53
2022-08-31T07:43:04.409Z,101116.00
2022-08-31T07:48:10.381Z,101124.34
2022-08-31T07:53:31.489Z,101115.41
2022-08-31T07:58:53.238Z,101126.44
2022-08-31T08:04:02.029Z,101134.63
2022-08-31T08:09:26.334Z,101136.25
2022-08-31T08:14:35.387Z,101139.16
2022-08-31T08:19:47.446Z,101130.84
2022-08-31T08:24:50.904Z,101128.16
2022-08-31T08:30:23.518Z,101130.06
2022-08-31T08:35:32.651Z,101144.63
2022-08-31T08:40:41.533Z,101133.75
2022-08-31T08:45:50.460Z,101139.00
2022-08-31T08:50:57.976Z,101137.34
2022-08-31T08:56:31.766Z,101140.03
2022-08-31T09:01:37.401Z,101141.59
2022-08-31T09:06:54.662Z,101140.16
2022-08-31T09:12:15.025Z,101145.81
2022-08-31T09:17:34.721Z,101138.63
2022-08-31T09:22:46.894Z,101145.53
2022-08-31T09:27:57.447Z,101142.94
2022-08-31T09:33:00.296Z,101145.22
2022-08-31T09:38:09.985Z,101141.19
2022-08-31T09:43:25.277Z,101133.53
2022-08-31T09:48:51.406Z,101129.28
2022-08-31T09:54:14.100Z,101133.94
2022-08-31T09:59:30.877Z,101128.75
2022-08-31T10:04:38.071Z,101129.56
2022-08-31T10:09:47.936Z,101129.94
2022-08-31T10:14:56.182Z,101124.69
2022-08-31T10:20:06.534Z,101121.75
2022-08-31T10:25:21.477Z,101122.44
2022-08-31T10:30:30.121Z,101118.59
2022-08-31T10:35:42.479Z,101112.53
2022-08-31T10:40:51.496Z,101107.31
2022-08-31T10:45:55.053Z,101112.00
2022-08-31T10:51:09.171Z,101113.06
2022-08-31T10:56:23.923Z,101119.00
2022-08-31T11:01:33.600Z,101103.84
2022-08-31T11:06:41.813Z,101109.53
2022-08-31T11:11:49.204Z,101103.72
2022-08-31T11:17:11.828Z,101109.72
2022-08-31T11:22:47.515Z,101106.94
2022-08-31T11:27:56.697Z,101104.22
2022-08-31T11:33:03.105Z,101106.22
2022-08-31T11:38:05.986Z,101105.97
2022-08-31T11:43:15.056Z,101109.44
2022-08-31T11:48:51.108Z,101086.63
2022-08-31T11:53:55.387Z,101091.81
2022-08-31T11:59:21.491Z,101079.06
2022-08-31T12:05:00.370Z,101076.69
2022-08-31T12:10:37.355Z,101079.88
2022-08-31T12:16:01.363Z,101076.50
2022-08-31T12:21:27.238Z,101070.09
2022-08-31T12:26:55.073Z,101071.69
2022-08-31T12:32:15.287Z,101071.16
2022-08-31T12:37:24.189Z,101067.88
2022-08-31T12:42:27.065Z,101046.72
2022-08-31T12:47:39.330Z,101045.72
2022-08-31T12:52:54.488Z,101042.66
2022-08-31T12:58:06.977Z,101039.50
2022-08-31T13:03:21.110Z,101036.25
2022-08-31T13:08:26.215Z,101044.97
2022-08-31T13:13:30.450Z,101029.84
2022-08-31T13:18:36.731Z,101037.63
2022-08-31T13:23:41.855Z,101022.59
2022-08-31T13:28:51.080Z,101017.00
2022-08-31T13:34:03.005Z,101009.22
2022-08-31T13:39:16.454Z,101011.81
2022-08-31T13:44:27.348Z,101003.72
2022-08-31T13:49:38.354Z,101005.78
2022-08-31T13:54:41.520Z,100996.78
2022-08-31T13:59:45.115Z,100996.94
2022-08-31T14:05:01.240Z,100995.34
2022-08-31T14:10:15.256Z,101000.19
2022-08-31T14:15:22.381Z,100989.69
2022-08-31T14:20:36.314Z,100981.94
2022-08-31T14:25:39.813Z,100978.78
2022-08-31T14:30:42.663Z,100971.09
2022-08-31T14:35:47.348Z,100970.66
2022-08-31T14:40:50.612Z,100970.94
2022-08-31T14:45:54.521Z,100958.66
2022-08-31T14:50:59.139Z,100957.44
2022-08-31T14:56:01.980Z,100952.53
2022-08-31T15:01:06.352Z,100957.81
2022-08-31T15:06:10.933Z,100959.41
2022-08-31T15:11:14.262Z,100950.28
2022-08-31T15:16:17.176Z,100947.09
2022-08-31T15:21:22.457Z,100936.13
2022-08-31T15:26:25.385Z,100935.72
2022-08-31T15:31:28.875Z,100933.28
2022-08-31T15:36:33.129Z,100928.34
2022-08-31T15:41:38.070Z,100926.09
2022-08-31T15:46:58.418Z,100930.34
2022-08-31T15:52:06.852Z,100917.38
2022-08-31T15:57:11.325Z,100918.16
2022-08-31T16:02:15.727Z,100914.84
2022-08-31T16:07:22.726Z,100913.34
2022-08-31T16:12:27.567Z,100910.66
2022-08-31T16:17:30.379Z,100905.88
2022-08-31T16:22:34.617Z,100906.78
2022-08-31T16:27:38.122Z,100901.69
2022-08-31T16:32:41.131Z,100904.75
2022-08-31T16:37:45.537Z,100898.09
2022-08-31T16:42:48.317Z,100903.22
2022-08-31T16:48:11.737Z,100907.41
2022-08-31T16:53:18.122Z,100904.75
2022-08-31T16:58:47.675Z,100898.47
2022-08-31T17:03:49.500Z,100908.84
2022-08-31T17:08:57.973Z,100910.78
2022-08-31T17:14:03.085Z,100901.91
2022-08-31T17:19:10.730Z,100895.94
2022-08-31T17:24:16.012Z,100905.09
2022-08-31T17:29:20.078Z,100907.53
2022-08-31T17:34:28.040Z,100914.00
2022-08-31T17:39:32.903Z,100915.13
2022-08-31T17:44:36.399Z,100920.69
2022-08-31T17:49:44.487Z,100921.72
2022-08-31T17:54:52.254Z,100931.41
2022-08-31T17:59:55.723Z,100938.25
2022-08-31T18:04:58.802Z,100935.09
2022-08-31T18:10:03.147Z,100943.84
2022-08-31T18:15:06.945Z,100950.16
2022-08-31T18:20:12.393Z,100954.88
2022-08-31T18:25:16.623Z,100948.81
2022-08-31T18:30:19.742Z,100962.88
2022-08-31T18:35:24.944Z,100965.31
2022-08-31T18:40:46.865Z,100967.75
2022-08-31T18:45:50.256Z,100973.44
2022-08-31T18:50:58.798Z,100971.09
2022-08-31T18:56:09.630Z,100979.44
2022-08-31T19:01:15.471Z,100981.53
2022-08-31T19:06:20.609Z,100983.22
2022-08-31T19:11:25.150Z,100986.44
2022-08-31T19:16:29.768Z,100987.44
2022-08-31T19:21:35.784Z,100980.63
2022-08-31T19:26:42.721Z,100991.31
2022-08-31T19:31:47.656Z,100986.69
2022-08-31T19:36:54.447Z,100990.63
2022-08-31T19:42:03.238Z,100990.25
2022-08-31T19:47:07.633Z,100999.94
2022-08-31T19:52:10.905Z,100986.28
2022-08-31T19:57:16.250Z,100990.81
2022-08-31T20:02:19.199Z,100996.88
2022-08-31T20:07:23.664Z,100997.53
2022-08-31T20:12:30.461Z,100998.50
2022-08-31T20:17:33.423Z,101003.47
2022-08-31T20:22:38.888Z,100999.84
2022-08-31T20:27:43.101Z,101011.03
2022-08-31T20:32:46.022Z,101009.28
2022-08-31T20:37:48.957Z,101007.44
2022-08-31T20:42:55.111Z,100996.13
2022-08-31T20:48:15.653Z,101003.66
2022-08-31T20:53:25.057Z,101014.13
2022-08-31T20:58:46.260Z,101017.28
2022-08-31T21:03:49.190Z,101017.88
2022-08-31T21:08:56.482Z,101012.75
2022-08-31T21:14:01.000Z,101011.97
2022-08-31T21:24:09.245Z,101019.41
2022-08-31T21:29:15.802Z,101014.44
2022-08-31T21:34:19.932Z,101016.78
2022-08-31T21:39:24.829Z,101014.69
2022-08-31T21:44:29.505Z,101024.03
2022-08-31T21:49:34.012Z,101022.09
2022-08-31T21:54:37.218Z,101018.38
2022-08-31T21:59:41.721Z,101021.41
2022-08-31T22:04:45.738Z,101028.50
2022-08-31T22:09:48.676Z,101034.34
2022-08-31T22:14:53.406Z,101031.69
2022-08-31T22:19:56.190Z,101033.25
2022-08-31T22:24:59.027Z,101040.84
2022-08-31T22:30:04.551Z,101039.28
2022-08-31T22:35:08.046Z,101047.13
2022-08-31T22:40:17.118Z,101042.00
2022-08-31T22:45:23.737Z,101034.16
2022-08-31T22:50:27.160Z,101036.44
2022-08-31T22:55:29.953Z,101043.03
2022-08-31T23:00:34.868Z,101040.59
2022-08-31T23:05:41.968Z,101032.91
2022-08-31T23:10:44.927Z,101027.47
2022-08-31T23:15:49.964Z,101032.75
2022-08-31T23:20:52.946Z,101032.16
2022-08-31T23:25:55.756Z,101036.03
2022-08-31T23:31:00.666Z,101029.97
2022-08-31T23:36:05.164Z,101028.53
2022-08-31T23:41:08.005Z,101024.69
2022-08-31T23:46:19.201Z,101027.16
2022-08-31T23:51:23.230Z,101021.97
2022-08-31T23:56:32.824Z,101023.53
